Time;durP1;ratioP1;P1;durP2;ratioP2;P2;SDS_P1;SDS_P2;PMS_P1;PMS_P2;Temp;Humidity;BMP_temperature;BMP_pressure;BME280_temperature;BME280_humidity;BME280_pressure;Samples;Min_cycle;Max_cycle;Signal;HPM_P1;HPM_P2
2023/07/08 00:02:12;;;;;;;6.97;4.28;;;;;;;22.61;48.11;101532.97;5069980;28;20115;-73
2023/07/08 00:04:38;;;;;;;6.00;4.13;;;;;;;22.60;47.86;101525.66;5069906;28;20040;-73
2023/07/08 00:07:04;;;;;;;5.10;3.65;;;;;;;22.54;47.90;101521.25;5065644;28;20025;-73
2023/07/08 00:09:30;;;;;;;4.18;3.78;;;;;;;22.55;47.89;101522.94;5052656;28;20108;-73
2023/07/08 00:11:57;;;;;;;9.00;4.40;;;;;;;22.54;48.25;101518.44;5051715;28;20163;-73
2023/07/08 00:14:22;;;;;;;7.32;4.35;;;;;;;22.50;47.97;101521.06;5052708;28;20040;-72
2023/07/08 00:16:49;;;;;;;6.63;3.92;;;;;;;22.51;47.99;101516.22;5052907;28;20025;-73
2023/07/08 00:19:19;;;;;;;5.50;4.30;;;;;;;22.47;48.38;101509.53;5055535;28;20040;-73
2023/07/08 00:21:47;;;;;;;5.82;4.22;;;;;;;22.40;48.36;101510.00;5072753;28;20103;-73
2023/07/08 00:24:12;;;;;;;4.55;4.00;;;;;;;22.47;48.41;101510.38;5064495;28;20476;-73
2023/07/08 00:26:38;;;;;;;5.28;4.10;;;;;;;22.44;48.14;101513.00;5068183;28;20043;-73
2023/07/08 00:29:09;;;;;;;5.53;3.70;;;;;;;22.45;48.13;101503.38;5057491;28;20044;-73
2023/07/08 00:31:34;;;;;;;4.57;3.90;;;;;;;22.42;48.33;101507.66;5052089;28;20033;-73
2023/07/08 00:34:03;;;;;;;5.07;4.18;;;;;;;22.41;48.11;101510.81;5069390;28;20031;-73
2023/07/08 00:36:29;;;;;;;6.22;3.65;;;;;;;22.39;48.27;101507.47;5071701;28;20065;-73
2023/07/08 00:38:54;;;;;;;6.70;3.78;;;;;;;22.35;48.46;101500.75;5081318;28;20486;-73
2023/07/08 00:41:34;;;;;;;4.85;4.35;;;;;;;22.30;48.34;101499.72;5072764;28;20017;-73
2023/07/08 00:44:01;;;;;;;6.13;4.35;;;;;;;22.30;48.41;101496.91;5072262;28;20040;-73
2023/07/08 00:46:29;;;;;;;5.10;4.20;;;;;;;22.24;48.42;101497.31;5069585;28;20024;-73
2023/07/08 00:49:06;;;;;;;5.45;4.00;;;;;;;22.26;48.23;101490.19;5071636;28;20032;-72
2023/07/08 00:51:39;;;;;;;7.20;4.28;;;;;;;22.26;48.37;101493.03;5070306;28;20111;-73
2023/07/08 00:54:05;;;;;;;6.75;4.13;;;;;;;22.22;48.50;101483.50;5080035;28;20043;-73
2023/07/08 00:56:38;;;;;;;6.25;4.28;;;;;;;22.24;48.32;101483.19;5091020;28;20036;-73
2023/07/08 00:59:09;;;;;;;5.10;4.43;;;;;;;22.17;48.92;101492.09;5071686;28;20029;-73
2023/07/08 01:01:40;;;;;;;4.93;4.43;;;;;;;22.18;48.46;101496.59;5069780;28;20054;-73
2023/07/08 01:04:18;;;;;;;4.95;4.03;;;;;;;22.16;48.67;101493.25;5056809;28;20150;-73
2023/07/08 01:06:57;;;;;;;6.10;4.80;;;;;;;22.08;49.14;101491.13;5051307;28;20497;-73
2023/07/08 01:09:25;;;;;;;5.18;3.95;;;;;;;22.05;49.06;101498.28;5052457;28;20582;-73
2023/07/08 01:11:50;;;;;;;9.88;4.28;;;;;;;22.05;49.12;101489.78;5074465;28;20034;-73
2023/07/08 01:14:19;;;;;;;6.97;4.15;;;;;;;22.04;48.95;101490.91;5081415;28;20384;-73
2023/07/08 01:16:44;;;;;;;7.03;4.45;;;;;;;22.03;49.08;101489.25;5051256;28;20120;-74
2023/07/08 01:19:17;;;;;;;7.65;4.28;;;;;;;21.97;49.23;101489.69;5057664;28;20060;-73
2023/07/08 01:21:53;;;;;;;9.77;4.40;;;;;;;21.94;49.13;101484.66;5069994;28;20597;-74
2023/07/08 01:24:18;;;;;;;7.10;4.63;;;;;;;21.93;49.39;101488.63;5082110;28;20365;-74
2023/07/08 01:26:45;;;;;;;6.68;4.40;;;;;;;21.92;49.27;101493.44;5077605;28;20107;-74
2023/07/08 01:29:12;;;;;;;6.07;4.35;;;;;;;21.92;49.32;101486.94;5070432;28;20040;-74
2023/07/08 01:31:37;;;;;;;4.60;3.97;;;;;;;21.89;49.56;101487.56;5050863;28;20135;-73
2023/07/08 01:34:03;;;;;;;5.50;3.97;;;;;;;21.90;49.49;101487.28;5066132;28;20149;-74
2023/07/08 01:36:34;;;;;;;5.75;4.32;;;;;;;21.90;49.60;101481.63;5085766;28;20036;-73
2023/07/08 01:38:59;;;;;;;6.90;4.60;;;;;;;21.87;49.19;101484.25;5053923;28;20384;-74
2023/07/08 01:41:24;;;;;;;6.18;4.40;;;;;;;21.91;49.15;101480.47;5050704;28;20042;-74
2023/07/08 01:43:50;;;;;;;7.00;4.43;;;;;;;21.91;49.01;101486.13;5058943;28;20075;-73
2023/07/08 01:46:20;;;;;;;6.18;4.25;;;;;;;21.77;49.30;101486.13;5070774;28;20476;-74
2023/07/08 01:48:50;;;;;;;5.35;3.92;;;;;;;21.80;48.96;101491.13;5070666;28;20033;-74
2023/07/08 01:51:16;;;;;;;6.55;3.97;;;;;;;21.72;49.53;101483.38;5076417;28;20028;-74
2023/07/08 01:53:42;;;;;;;5.05;4.18;;;;;;;21.84;49.11;101480.03;5090864;28;20031;-73
2023/07/08 01:56:10;;;;;;;7.00;4.10;;;;;;;21.73;49.65;101461.63;5090418;28;20134;-74
2023/07/08 01:58:35;;;;;;;5.88;3.90;;;;;;;21.78;49.56;101470.84;5084541;28;20032;-74
2023/07/08 02:01:01;;;;;;;6.35;4.05;;;;;;;21.71;49.69;101467.59;5070291;28;20111;-74
2023/07/08 02:03:27;;;;;;;6.05;3.55;;;;;;;21.73;49.68;101462.47;5070322;28;20043;-74
2023/07/08 02:05:52;;;;;;;4.47;3.83;;;;;;;21.73;49.71;101456.84;5075985;28;20027;-74
2023/07/08 02:08:17;;;;;;;5.80;4.40;;;;;;;21.67;49.76;101458.06;5068243;28;20037;-74
2023/07/08 02:10:44;;;;;;;6.00;3.95;;;;;;;21.64;49.73;101453.03;5062423;28;20090;-74
2023/07/08 02:13:10;;;;;;;7.28;3.72;;;;;;;21.66;49.66;101461.22;5051222;28;20040;-74
2023/07/08 02:15:35;;;;;;;5.13;3.80;;;;;;;21.61;49.83;101453.66;5050311;28;20044;-74
2023/07/08 02:18:01;;;;;;;9.65;3.95;;;;;;;21.56;49.90;101446.13;5050130;28;20021;-74
2023/07/08 02:20:26;;;;;;;6.18;3.97;;;;;;;21.57;50.27;101441.31;5050525;28;20100;-74
2023/07/08 02:22:51;;;;;;;5.70;4.10;;;;;;;21.56;49.75;101434.00;5061540;28;20033;-74
2023/07/08 02:25:17;;;;;;;7.53;4.38;;;;;;;21.56;49.88;101445.31;5063124;28;20021;-74
2023/07/08 02:27:42;;;;;;;4.47;4.07;;;;;;;21.50;49.83;101436.09;5066283;28;20020;-74
2023/07/08 02:30:09;;;;;;;5.40;3.92;;;;;;;21.53;50.02;101440.28;5070912;28;20395;-73
2023/07/08 02:32:38;;;;;;;6.55;3.78;;;;;;;21.47;50.12;101430.25;5056423;28;20551;-74
2023/07/08 02:35:04;;;;;;;6.40;4.80;;;;;;;21.45;50.01;101433.34;5053569;28;20498;-74
2023/07/08 02:37:30;;;;;;;5.00;4.18;;;;;;;21.46;50.08;101417.28;5070672;28;20048;-74
2023/07/08 02:39:55;;;;;;;8.25;5.20;;;;;;;21.41;50.14;101414.53;5068323;28;20194;-74
2023/07/08 02:42:21;;;;;;;6.38;4.32;;;;;;;21.32;50.29;101422.88;5057922;28;20056;-74
2023/07/08 02:44:46;;;;;;;8.70;4.88;;;;;;;21.33;50.48;101418.91;5050209;28;20051;-74
2023/07/08 02:47:11;;;;;;;6.53;4.20;;;;;;;21.40;50.21;101415.69;5049546;28;20033;-74
2023/07/08 02:49:37;;;;;;;6.60;4.65;;;;;;;21.35;50.08;101419.47;5050754;28;20357;-74
2023/07/08 02:52:02;;;;;;;7.53;4.80;;;;;;;21.30;50.18;101423.19;5050971;28;20063;-74
2023/07/08 02:54:28;;;;;;;7.55;4.63;;;;;;;21.26;50.34;101416.50;5069801;28;20060;-73
2023/07/08 02:56:53;;;;;;;5.43;4.45;;;;;;;21.24;50.57;101429.22;5073328;28;20035;-74
2023/07/08 02:59:19;;;;;;;6.80;4.88;;;;;;;21.23;50.38;101436.88;5069405;28;20090;-73
2023/07/08 03:01:46;;;;;;;4.80;4.30;;;;;;;21.28;50.54;101439.59;5069102;28;20025;-74
2023/07/08 03:04:15;;;;;;;4.65;3.80;;;;;;;21.29;50.42;101432.78;5068533;28;20559;-74
2023/07/08 03:06:44;;;;;;;5.95;4.13;;;;;;;21.18;50.60;101448.25;5053137;28;20110;-74
2023/07/08 03:09:11;;;;;;;5.70;4.40;;;;;;;21.23;50.44;101445.34;5053481;28;20484;-74
2023/07/08 03:11:38;;;;;;;5.18;4.15;;;;;;;21.15;50.56;101448.88;5054608;28;20040;-74
2023/07/08 03:14:04;;;;;;;5.25;4.40;;;;;;;21.20;50.65;101448.78;5069715;28;20468;-74
2023/07/08 03:16:29;;;;;;;5.93;4.40;;;;;;;21.17;50.49;101442.91;5083572;28;20047;-73
2023/07/08 03:18:54;;;;;;;7.65;4.50;;;;;;;21.20;50.49;101442.31;5076914;28;20082;-74
2023/07/08 03:21:21;;;;;;;7.07;4.43;;;;;;;21.20;50.23;101440.31;5073260;28;20029;-74
2023/07/08 03:23:48;;;;;;;7.13;4.60;;;;;;;21.11;51.11;101439.34;5054174;28;20040;-74
2023/07/08 03:26:20;;;;;;;5.15;4.63;;;;;;;21.12;50.47;101441.03;5053667;28;20025;-73
2023/07/08 03:28:47;;;;;;;8.38;4.15;;;;;;;21.14;50.67;101438.72;5052887;28;20709;-73
2023/07/08 03:31:12;;;;;;;4.78;4.22;;;;;;;21.01;50.81;101436.72;5066665;28;20034;-74
2023/07/08 03:33:38;;;;;;;6.20;4.40;;;;;;;21.02;51.01;101439.22;5056335;28;20033;-73
2023/07/08 03:36:10;;;;;;;6.93;4.38;;;;;;;21.02;51.12;101439.22;5053159;28;20029;-73
2023/07/08 03:38:35;;;;;;;5.78;4.53;;;;;;;20.93;51.38;101443.91;5053311;28;20033;-74
2023/07/08 03:41:00;;;;;;;5.63;4.30;;;;;;;20.99;51.35;101444.66;5053361;28;20052;-73
2023/07/08 03:43:26;;;;;;;6.70;4.03;;;;;;;20.99;51.27;101442.69;5052300;28;20033;-73
2023/07/08 03:45:51;;;;;;;6.03;4.57;;;;;;;20.97;51.50;101450.59;5059225;28;20110;-73
2023/07/08 03:48:17;;;;;;;10.15;4.55;;;;;;;20.93;51.50;101449.53;5052844;28;20469;-73
2023/07/08 03:50:42;;;;;;;9.05;5.53;;;;;;;20.87;51.63;101449.91;5053620;28;20151;-73
2023/07/08 03:53:08;;;;;;;9.05;5.30;;;;;;;20.90;51.74;101454.97;5064670;28;20064;-73
2023/07/08 03:55:34;;;;;;;6.43;4.97;;;;;;;20.88;51.61;101462.91;5052740;28;20427;-74
2023/07/08 03:57:59;;;;;;;13.90;5.15;;;;;;;20.86;51.55;101465.19;5052546;28;20148;-74
2023/07/08 04:00:24;;;;;;;11.70;5.47;;;;;;;20.84;51.74;101463.50;5051259;28;20060;-74
2023/07/08 04:02:50;;;;;;;10.48;5.03;;;;;;;20.87;51.82;101466.84;5054961;28;20065;-74
2023/07/08 04:05:17;;;;;;;10.05;4.80;;;;;;;20.85;51.77;101458.72;5052368;28;20027;-74
2023/07/08 04:07:42;;;;;;;15.73;5.50;;;;;;;20.83;51.98;101461.84;5051897;28;20158;-74
2023/07/08 04:10:09;;;;;;;8.43;5.45;;;;;;;20.70;52.30;101462.63;5051993;28;20525;-74
2023/07/08 04:12:35;;;;;;;10.23;5.28;;;;;;;20.72;52.24;101471.63;5066307;28;20028;-74
2023/07/08 04:15:00;;;;;;;10.02;5.30;;;;;;;20.69;52.55;101455.31;5052934;28;20053;-73
2023/07/08 04:17:25;;;;;;;8.43;5.07;;;;;;;20.75;52.57;101464.50;5051630;28;20076;-74
2023/07/08 04:19:51;;;;;;;9.32;5.20;;;;;;;20.75;52.70;101467.31;5066874;28;20047;-73
2023/07/08 04:22:17;;;;;;;10.55;5.47;;;;;;;20.64;52.85;101472.31;5073124;28;20483;-74
2023/07/08 04:24:42;;;;;;;8.32;5.15;;;;;;;20.71;53.02;101467.13;5071958;28;20032;-74
2023/07/08 04:27:14;;;;;;;7.22;4.80;;;;;;;20.77;52.87;101474.34;5072340;28;20658;-74
2023/07/08 04:29:40;;;;;;;11.23;5.70;;;;;;;20.76;52.74;101471.84;5072674;28;20115;-74
2023/07/08 04:32:06;;;;;;;8.35;5.50;;;;;;;20.78;52.66;101469.53;5068686;28;20074;-74
2023/07/08 04:34:31;;;;;;;13.55;5.93;;;;;;;20.76;53.03;101461.41;5067936;28;20040;-73
2023/07/08 04:36:56;;;;;;;12.48;5.78;;;;;;;20.79;52.82;101457.97;5065195;28;20025;-74
2023/07/08 04:39:22;;;;;;;12.90;5.90;;;;;;;20.78;52.77;101461.91;5066729;28;20036;-74
2023/07/08 04:41:48;;;;;;;10.27;4.72;;;;;;;20.80;52.89;101464.44;5070325;28;20032;-73
2023/07/08 04:44:13;;;;;;;19.65;5.70;;;;;;;20.72;53.18;101460.34;5071921;28;20490;-74
2023/07/08 04:46:50;;;;;;;10.25;5.30;;;;;;;20.79;52.76;101465.59;5070996;28;20051;-73
2023/07/08 04:49:17;;;;;;;9.32;5.38;;;;;;;20.75;53.15;101454.09;5072030;28;20451;-73
2023/07/08 04:51:42;;;;;;;14.23;5.55;;;;;;;20.80;53.04;101465.28;5072057;28;20031;-73
2023/07/08 04:54:08;;;;;;;8.90;5.35;;;;;;;20.78;53.25;101459.09;5062292;28;20028;-73
2023/07/08 04:56:38;;;;;;;8.40;5.18;;;;;;;20.83;52.95;101456.22;5052248;28;20033;-73
2023/07/08 04:59:04;;;;;;;8.60;5.20;;;;;;;20.87;53.08;101456.44;5050460;28;20727;-73
2023/07/08 05:01:30;;;;;;;7.40;4.82;;;;;;;20.92;53.32;101455.50;5053365;28;20032;-72
2023/07/08 05:03:55;;;;;;;9.25;4.97;;;;;;;20.93;53.38;101454.34;5066820;28;20029;-71
2023/07/08 05:06:21;;;;;;;11.82;5.43;;;;;;;20.95;53.67;101466.19;5070611;28;20040;-71
2023/07/08 05:08:46;;;;;;;11.07;5.97;;;;;;;20.97;53.09;101459.06;5071710;28;20025;-74
2023/07/08 05:11:11;;;;;;;5.57;4.75;;;;;;;21.02;53.13;101470.25;5071555;28;20044;-75
2023/07/08 05:13:37;;;;;;;6.82;4.60;;;;;;;21.07;53.16;101469.34;5063472;28;20059;-73
2023/07/08 05:16:02;;;;;;;7.82;4.30;;;;;;;21.05;53.44;101463.16;5058380;28;20068;-72
2023/07/08 05:18:27;;;;;;;12.48;6.22;;;;;;;20.97;52.98;101456.25;5051610;28;20025;-74
2023/07/08 05:20:54;;;;;;;8.23;4.85;;;;;;;21.05;53.22;101457.53;5062000;28;20998;-73
2023/07/08 05:23:20;;;;;;;6.82;4.97;;;;;;;21.06;53.31;101462.00;5071289;28;20101;-73
2023/07/08 05:25:45;;;;;;;10.40;5.45;;;;;;;21.07;53.55;101460.88;5069543;28;20036;-74
2023/07/08 05:28:10;;;;;;;11.27;5.70;;;;;;;21.04;53.94;101459.50;5069325;28;20021;-74
2023/07/08 05:30:35;;;;;;;9.90;5.70;;;;;;;21.06;53.92;101460.06;5061688;28;20037;-75
2023/07/08 05:33:01;;;;;;;7.72;4.53;;;;;;;21.14;53.62;101464.13;5051269;28;20040;-73
2023/07/08 05:35:26;;;;;;;6.35;4.70;;;;;;;21.19;53.79;101457.56;5072480;28;20017;-74
2023/07/08 05:37:52;;;;;;;6.00;4.63;;;;;;;21.22;53.40;101445.63;5077555;28;20025;-75
2023/07/08 05:40:17;;;;;;;6.10;5.00;;;;;;;21.22;53.60;101443.69;5051086;28;20021;-75
2023/07/08 05:42:42;;;;;;;6.38;5.40;;;;;;;21.25;53.57;101443.03;5060097;28;20459;-76
2023/07/08 05:45:10;;;;;;;8.23;4.93;;;;;;;21.30;53.54;101448.59;5067535;28;20060;-74
2023/07/08 05:47:36;;;;;;;5.20;4.70;;;;;;;21.33;53.63;101450.81;5053829;28;20155;-66
2023/07/08 05:50:01;;;;;;;5.68;4.28;;;;;;;21.40;53.58;101446.75;5058009;28;20047;-74
2023/07/08 05:52:27;;;;;;;6.13;4.30;;;;;;;21.45;53.48;101444.66;5053409;28;20025;-74
2023/07/08 05:54:52;;;;;;;5.43;4.03;;;;;;;21.49;53.01;101445.69;5068267;28;20085;-73
2023/07/08 05:57:17;;;;;;;5.30;4.75;;;;;;;21.54;53.17;101450.44;5090575;28;20525;-73
2023/07/08 05:59:43;;;;;;;4.45;3.97;;;;;;;21.55;53.21;101447.28;5073169;28;21038;-73
2023/07/08 06:02:10;;;;;;;6.68;5.13;;;;;;;21.59;53.27;101447.50;5061409;28;20586;-74
2023/07/08 06:04:36;;;;;;;6.72;3.75;;;;;;;21.65;52.63;101448.22;5057800;28;20097;-74
2023/07/08 06:07:01;;;;;;;8.23;4.35;;;;;;;21.66;52.90;101445.09;5050771;28;20112;-74
2023/07/08 06:09:26;;;;;;;5.22;3.45;;;;;;;21.72;52.34;101455.13;5050305;28;20025;-74
2023/07/08 06:11:52;;;;;;;4.32;3.58;;;;;;;21.76;52.22;101452.53;5050648;28;20439;-74
2023/07/08 06:14:23;;;;;;;8.52;4.10;;;;;;;21.81;52.26;101460.88;5050360;28;20153;-74
2023/07/08 06:16:49;;;;;;;3.83;3.40;;;;;;;21.87;52.49;101456.81;5060380;28;20036;-74
2023/07/08 06:19:14;;;;;;;7.90;4.70;;;;;;;21.91;52.33;101457.03;5050887;28;20151;-74
2023/07/08 06:21:43;;;;;;;6.13;4.18;;;;;;;21.95;51.77;101460.91;5050856;28;20162;-74
2023/07/08 06:24:08;;;;;;;5.68;4.47;;;;;;;21.99;51.52;101461.94;5049186;28;20028;-74
2023/07/08 06:26:34;;;;;;;9.52;5.40;;;;;;;22.03;51.31;101465.81;5066079;28;20024;-74
2023/07/08 06:28:59;;;;;;;6.13;4.95;;;;;;;22.06;51.06;101459.53;5070369;28;20074;-74
2023/07/08 06:31:25;;;;;;;6.20;4.05;;;;;;;22.14;50.68;101464.47;5075505;28;20024;-74
2023/07/08 06:33:50;;;;;;;5.50;4.70;;;;;;;22.15;50.50;101463.31;5095218;28;20039;-74
2023/07/08 06:36:16;;;;;;;9.13;4.65;;;;;;;22.22;50.91;101466.53;5065114;28;20039;-74
2023/07/08 06:38:41;;;;;;;6.97;5.65;;;;;;;22.27;50.49;101466.41;5053503;28;20512;-74
2023/07/08 06:41:07;;;;;;;9.35;5.38;;;;;;;22.35;50.00;101464.81;5054552;28;20166;-74
2023/07/08 06:43:32;;;;;;;8.60;5.63;;;;;;;22.42;50.79;101464.41;5054153;28;20057;-74
2023/07/08 06:45:57;;;;;;;9.52;4.82;;;;;;;22.51;50.84;101463.31;5053782;28;20122;-74
2023/07/08 06:48:24;;;;;;;7.03;5.15;;;;;;;22.54;50.43;101464.69;5054265;28;20075;-74
2023/07/08 06:50:49;;;;;;;8.77;4.95;;;;;;;22.59;50.35;101464.53;5071124;28;20107;-74
2023/07/08 06:53:15;;;;;;;8.85;5.30;;;;;;;22.67;50.46;101465.78;5065467;28;20506;-74
2023/07/08 06:55:40;;;;;;;11.82;5.50;;;;;;;22.71;50.48;101461.97;5072685;28;20035;-74
2023/07/08 06:58:06;;;;;;;8.60;5.40;;;;;;;22.76;50.40;101467.53;5075626;28;20032;-74
2023/07/08 07:00:31;;;;;;;10.85;5.82;;;;;;;22.79;49.97;101466.91;5093317;28;20031;-74
2023/07/08 07:02:57;;;;;;;8.77;5.40;;;;;;;22.82;49.52;101459.75;5091896;28;20040;-74
2023/07/08 07:05:22;;;;;;;8.75;5.97;;;;;;;22.87;48.98;101453.13;5094135;28;20047;-74
2023/07/08 07:07:47;;;;;;;8.32;5.55;;;;;;;22.93;49.17;101449.88;5077972;28;20028;-75
2023/07/08 07:10:13;;;;;;;10.23;5.90;;;;;;;23.00;48.49;101449.44;5094025;28;20387;-74
2023/07/08 07:12:38;;;;;;;11.10;5.68;;;;;;;23.07;48.43;101454.63;5093337;28;20483;-74
2023/07/08 07:15:04;;;;;;;7.35;5.50;;;;;;;23.15;48.73;101462.34;5094066;28;20070;-73
2023/07/08 07:17:30;;;;;;;11.95;6.20;;;;;;;23.21;48.54;101453.38;5069316;28;20492;-74
2023/07/08 07:19:55;;;;;;;11.85;6.30;;;;;;;23.26;48.22;101453.25;5056585;28;20017;-74
2023/07/08 07:22:21;;;;;;;10.20;6.25;;;;;;;23.31;48.58;101451.44;5088455;28;20425;-74
2023/07/08 07:24:46;;;;;;;9.48;6.00;;;;;;;23.34;48.39;101448.78;5091781;28;20151;-73
2023/07/08 07:27:12;;;;;;;10.55;6.38;;;;;;;23.44;48.08;101459.00;5070169;28;20379;-74
2023/07/08 07:29:46;;;;;;;7.97;6.15;;;;;;;23.48;48.26;101451.53;5067717;28;20040;-74
2023/07/08 07:32:13;;;;;;;8.45;5.57;;;;;;;23.65;48.33;101454.41;5074170;28;20033;-74
2023/07/08 07:34:39;;;;;;;7.57;5.60;;;;;;;23.65;47.97;101448.75;5078202;28;20042;-74
2023/07/08 07:37:11;;;;;;;7.13;5.72;;;;;;;23.75;48.47;101457.00;5087281;28;20025;-73
2023/07/08 07:39:36;;;;;;;;;;;;;;;23.81;48.61;101454.00;5073865;28;20128;-74
2023/07/08 07:42:02;;;;;;;10.27;5.97;;;;;;;23.89;47.04;101458.88;5071430;28;20003;-74
2023/07/08 07:44:27;;;;;;;11.85;5.78;;;;;;;23.96;46.50;101464.91;5073441;28;20290;-74
2023/07/08 07:46:54;;;;;;;10.20;6.05;;;;;;;24.05;47.13;101460.13;5073062;28;20033;-74
2023/07/08 07:49:19;;;;;;;8.93;5.88;;;;;;;24.11;47.10;101455.94;5068428;28;20024;-74
2023/07/08 07:51:45;;;;;;;8.65;5.75;;;;;;;24.15;47.29;101453.28;5069537;28;20031;-74
2023/07/08 07:54:10;;;;;;;8.30;5.65;;;;;;;24.29;46.92;101454.00;5072191;28;20116;-74
2023/07/08 07:56:35;;;;;;;8.05;5.70;;;;;;;24.31;47.06;101453.66;5072225;28;20024;-74
2023/07/08 07:59:02;;;;;;;10.82;5.90;;;;;;;24.44;44.70;101445.03;5072923;28;20036;-74
2023/07/08 08:01:28;;;;;;;9.65;6.40;;;;;;;24.50;44.86;101445.69;5073340;28;20021;-74
2023/07/08 08:03:53;;;;;;;8.07;5.78;;;;;;;24.53;45.33;101449.88;5071558;28;20029;-75
2023/07/08 08:06:18;;;;;;;10.55;6.20;;;;;;;24.58;45.25;101444.84;5073135;28;20029;-75
2023/07/08 08:08:45;;;;;;;9.50;6.43;;;;;;;24.78;44.64;101448.19;5067219;28;20056;-76
2023/07/08 08:11:11;;;;;;;9.23;5.60;;;;;;;24.90;45.86;101448.34;5072136;28;20060;-75
2023/07/08 08:13:36;;;;;;;8.63;6.07;;;;;;;24.90;46.59;101454.00;5072590;28;20063;-75
2023/07/08 08:16:02;;;;;;;13.55;6.30;;;;;;;25.00;46.44;101453.69;5076480;28;20032;-77
2023/07/08 08:18:27;;;;;;;10.73;6.13;;;;;;;25.08;45.15;101452.81;5092986;28;20035;-74
2023/07/08 08:20:53;;;;;;;11.02;6.60;;;;;;;25.04;44.98;101463.19;5093123;28;20023;-77
2023/07/08 08:23:18;;;;;;;11.40;6.38;;;;;;;25.15;45.46;101464.53;5069786;28;20517;-75
2023/07/08 08:25:43;;;;;;;11.45;6.68;;;;;;;25.24;44.47;101461.69;5065856;28;20762;-74
2023/07/08 08:28:09;;;;;;;10.88;6.32;;;;;;;25.21;44.22;101453.81;5072670;28;20750;-74
2023/07/08 08:30:34;;;;;;;10.07;6.38;;;;;;;25.35;44.36;101464.97;5073561;28;20395;-74
2023/07/08 08:33:00;;;;;;;12.43;6.75;;;;;;;25.48;44.46;101466.78;5092280;28;20110;-74
2023/07/08 08:35:26;;;;;;;10.02;6.53;;;;;;;25.55;44.27;101471.94;5074567;28;20472;-74
2023/07/08 08:37:53;;;;;;;9.00;6.60;;;;;;;25.57;44.54;101464.72;5060568;28;20036;-75
2023/07/08 08:40:19;;;;;;;9.32;6.53;;;;;;;25.73;45.47;101478.38;5071458;28;20031;-74
2023/07/08 08:43:11;;;;;;;9.45;6.50;;;;;;;25.78;44.96;101473.41;5079017;28;20025;-74
2023/07/08 08:45:46;;;;;;;10.52;6.72;;;;;;;25.84;43.96;101479.72;5068292;28;20377;-66
2023/07/08 08:48:15;;;;;;;17.05;6.97;;;;;;;25.99;44.07;101472.63;5066885;28;20028;-75
2023/07/08 08:50:50;;;;;;;13.50;6.15;;;;;;;25.92;44.25;101478.84;5071684;28;20543;-76
2023/07/08 08:53:17;;;;;;;14.75;7.10;;;;;;;26.09;44.47;101478.72;5081502;28;20036;-76
2023/07/08 08:55:46;;;;;;;10.82;6.93;;;;;;;26.18;43.42;101476.69;5092524;28;20051;-76
2023/07/08 08:58:44;;;;;;;11.27;7.20;;;;;;;26.19;44.15;101475.50;5067959;28;20118;-76
2023/07/08 09:01:13;;;;;;;10.73;7.20;;;;;;;26.27;42.92;101484.31;5059829;28;20051;-76
2023/07/08 09:03:41;;;;;;;12.55;6.78;;;;;;;26.27;42.48;101485.16;5071237;28;20471;-76
2023/07/08 09:06:20;;;;;;;9.80;6.97;;;;;;;26.25;42.97;101473.28;5068190;28;20071;-76
2023/07/08 09:08:46;;;;;;;9.45;7.15;;;;;;;26.35;43.08;101489.13;5075241;28;20507;-76
2023/07/08 09:11:22;;;;;;;10.93;7.15;;;;;;;26.38;41.59;101485.59;5068808;28;20115;-76
2023/07/08 09:13:48;;;;;;;11.38;7.03;;;;;;;26.57;41.69;101482.31;5060819;28;20033;-76
2023/07/08 09:16:25;;;;;;;10.20;7.43;;;;;;;26.63;41.29;101476.03;5057896;28;20043;-75
2023/07/08 09:18:54;;;;;;;11.68;7.20;;;;;;;26.62;41.59;101473.56;5051413;28;20028;-76
2023/07/08 09:21:24;;;;;;;12.38;7.25;;;;;;;26.74;41.15;101469.94;5054589;28;20131;-74
2023/07/08 09:23:52;;;;;;;10.35;7.38;;;;;;;26.80;40.05;101462.84;5072609;28;20088;-74
2023/07/08 09:26:22;;;;;;;11.18;7.18;;;;;;;26.84;40.71;101461.81;5089329;28;20480;-74
2023/07/08 09:28:47;;;;;;;13.75;8.05;;;;;;;26.98;40.04;101470.03;5067206;28;20033;-74
2023/07/08 09:31:30;;;;;;;11.10;7.55;;;;;;;26.95;39.82;101476.44;5051447;28;20350;-74
2023/07/08 09:34:11;;;;;;;11.15;7.82;;;;;;;27.00;39.13;101475.38;5063384;28;20039;-74
2023/07/08 09:36:40;;;;;;;10.07;7.20;;;;;;;27.13;39.02;101471.44;5069532;28;20111;-76
2023/07/08 09:39:11;;;;;;;10.48;7.32;;;;;;;27.23;39.10;101470.16;5058572;28;20063;-74
2023/07/08 09:41:36;;;;;;;11.13;7.78;;;;;;;27.23;38.92;101468.13;5054042;28;20039;-74
2023/07/08 09:44:12;;;;;;;9.70;7.70;;;;;;;27.21;38.49;101452.59;5061739;28;20032;-66
2023/07/08 09:46:38;;;;;;;11.32;8.00;;;;;;;27.34;38.40;101454.28;5056632;28;20118;-75
2023/07/08 09:49:17;;;;;;;12.38;7.47;;;;;;;27.30;40.23;101448.44;5056598;28;20468;-66
2023/07/08 09:51:44;;;;;;;12.57;7.60;;;;;;;27.51;39.87;101451.25;5054976;28;20032;-68
2023/07/08 09:54:09;;;;;;;11.85;7.57;;;;;;;27.57;39.73;101452.66;5079314;28;20035;-68
2023/07/08 09:56:38;;;;;;;9.93;7.45;;;;;;;27.66;39.02;101443.97;5072207;28;20020;-73
2023/07/08 09:59:04;;;;;;;9.85;7.57;;;;;;;27.64;40.58;101441.50;5059011;28;20067;-77
2023/07/08 10:01:29;;;;;;;14.90;7.85;;;;;;;27.77;39.82;101450.09;5051261;28;20024;-76
2023/07/08 10:04:00;;;;;;;11.88;8.23;;;;;;;27.80;38.84;101450.22;5050319;28;20033;-76
2023/07/08 10:06:30;;;;;;;12.80;8.07;;;;;;;27.76;38.33;101454.13;5089332;28;20032;-76
2023/07/08 10:09:02;;;;;;;12.93;8.50;;;;;;;27.73;38.68;101449.94;5074538;28;20074;-76
2023/07/08 10:11:35;;;;;;;10.95;7.85;;;;;;;27.78;38.61;101446.03;5072081;28;20138;-75
2023/07/08 10:14:22;;;;;;;14.38;7.75;;;;;;;27.77;39.44;101450.09;5071448;28;20024;-75
2023/07/08 10:16:48;;;;;;;10.88;8.15;;;;;;;27.97;39.47;101454.84;5071823;28;20040;-76
2023/07/08 10:19:16;;;;;;;12.43;8.07;;;;;;;27.94;39.66;101458.41;5077028;28;20020;-75
2023/07/08 10:22:01;;;;;;;11.23;7.88;;;;;;;27.88;39.57;101454.13;5081643;28;20078;-73
2023/07/08 10:24:49;;;;;;;11.43;7.88;;;;;;;28.12;40.61;101456.97;5067701;28;20044;-75
2023/07/08 10:27:24;;;;;;;11.35;8.18;;;;;;;28.03;39.84;101452.59;5073199;28;20448;-74
2023/07/08 10:30:02;;;;;;;10.05;7.93;;;;;;;28.09;39.51;101449.13;5062046;28;20735;-75
2023/07/08 10:32:42;;;;;;;10.27;7.93;;;;;;;28.10;39.83;101445.09;5055012;28;20024;-73
2023/07/08 10:35:20;;;;;;;10.93;8.05;;;;;;;28.32;40.89;101451.47;5073691;28;20036;-74
2023/07/08 10:38:04;;;;;;;10.55;7.45;;;;;;;28.30;40.15;101451.03;5083145;28;20078;-72
2023/07/08 10:41:09;;;;;;;10.65;8.38;;;;;;;28.43;39.66;101449.00;5054230;28;20033;-71
2023/07/08 10:44:12;;;;;;;9.63;7.97;;;;;;;28.45;38.88;101455.16;5056101;28;20554;-74
2023/07/08 10:46:59;;;;;;;11.63;7.55;;;;;;;28.60;37.55;101463.81;5059260;28;20048;-75
2023/07/08 10:49:35;;;;;;;13.60;7.75;;;;;;;28.53;38.25;101455.03;5055101;28;21812;-75
2023/07/08 10:52:26;;;;;;;13.05;7.70;;;;;;;28.55;38.39;101460.38;5053899;28;20465;-77
2023/07/08 10:55:19;;;;;;;12.90;8.02;;;;;;;28.63;38.84;101460.22;5066344;28;20041;-75
2023/07/08 10:58:14;;;;;;;9.27;7.35;;;;;;;28.70;39.70;101468.19;5060670;28;20032;-75
2023/07/08 11:00:50;;;;;;;11.52;7.78;;;;;;;28.70;38.48;101475.94;5050614;28;20040;-76
2023/07/08 11:03:50;;;;;;;12.85;7.68;;;;;;;28.60;39.09;101460.13;5064433;28;20487;-75
2023/07/08 11:06:43;;;;;;;10.98;7.53;;;;;;;28.64;38.50;101452.50;5053858;28;20041;-77
2023/07/08 11:09:15;;;;;;;11.25;7.32;;;;;;;28.80;37.54;101456.22;5061829;28;20085;-75
2023/07/08 11:11:52;;;;;;;10.88;7.72;;;;;;;28.74;37.73;101452.00;5092653;28;20468;-73
2023/07/08 11:14:23;;;;;;;9.68;7.55;;;;;;;28.85;37.88;101455.16;5074335;28;20108;-75
2023/07/08 11:17:00;;;;;;;12.57;7.28;;;;;;;28.96;37.31;101456.28;5053425;28;20802;-75
2023/07/08 11:19:34;;;;;;;10.70;7.43;;;;;;;28.97;37.86;101458.00;5070386;28;20025;-74
2023/07/08 11:22:07;;;;;;;9.63;7.70;;;;;;;29.03;36.45;101458.56;5074855;28;20029;-73
2023/07/08 11:24:50;;;;;;;14.80;7.93;;;;;;;29.13;36.40;101454.34;5067300;28;20074;-75
2023/07/08 11:27:24;;;;;;;12.95;7.55;;;;;;;29.22;35.56;101455.84;5078927;28;20073;-75
2023/07/08 11:29:54;;;;;;;11.38;8.32;;;;;;;29.19;34.70;101453.69;5079760;28;20167;-75